sensor_id;sensor_type;location;lat;lon;timestamp;temperature;humidity
27200;DHT22;14714;48.106;11.546;2024-01-16T00:01:01;-1.90;99.90
27200;DHT22;14714;48.106;11.546;2024-01-16T00:03:28;-2.00;99.90
27200;DHT22;14714;48.106;11.546;2024-01-16T00:05:55;-1.90;99.90
27200;DHT22;14714;48.106;11.546;2024-01-16T00:08:22;-2.00;99.90
27200;DHT22;14714;48.106;11.546;2024-01-16T00:10:49;-2.00;99.90
27200;DHT22;14714;48.106;11.546;2024-01-16T00:13:16;-1.90;99.90
27200;DHT22;14714;48.106;11.546;2024-01-16T00:15:43;-1.90;99.90
27200;DHT22;14714;48.106;11.546;2024-01-16T00:18:10;-1.90;99.90
27200;DHT22;14714;48.106;11.546;2024-01-16T00:20:37;-1.90;99.90
27200;DHT22;14714;48.106;11.546;2024-01-16T00:23:04;-1.90;99.90
27200;DHT22;14714;48.106;11.546;2024-01-16T00:25:31;-1.80;99.90
27200;DHT22;14714;48.106;11.546;2024-01-16T00:27:58;-1.80;99.90
27200;DHT22;14714;48.106;11.546;2024-01-16T00:30:25;-1.80;99.90
27200;DHT22;14714;48.106;11.546;2024-01-16T00:32:52;-1.80;99.90
27200;DHT22;14714;48.106;11.546;2024-01-16T00:35:19;-1.80;99.90
27200;DHT22;14714;48.106;11.546;2024-01-16T00:37:46;-1.80;99.90
27200;DHT22;14714;48.106;11.546;2024-01-16T00:40:13;-1.80;99.90
27200;DHT22;14714;48.106;11.546;2024-01-16T00:42:40;-1.80;99.90
27200;DHT22;14714;48.106;11.546;2024-01-16T00:45:06;-1.80;99.90
27200;DHT22;14714;48.106;11.546;2024-01-16T00:47:33;-1.80;99.90
27200;DHT22;14714;48.106;11.546;2024-01-16T00:50:00;-1.90;99.90
27200;DHT22;14714;48.106;11.546;2024-01-16T00:52:29;-1.90;99.90
27200;DHT22;14714;48.106;11.546;2024-01-16T00:54:55;-1.90;99.90
27200;DHT22;14714;48.106;11.546;2024-01-16T00:57:22;-2.00;99.90
27200;DHT22;14714;48.106;11.546;2024-01-16T00:59:49;-2.00;99.90
27200;DHT22;14714;48.106;11.546;2024-01-16T01:02:16;-2.00;99.90
27200;DHT22;14714;48.106;11.546;2024-01-16T01:04:43;-2.10;99.90
27200;DHT22;14714;48.106;11.546;2024-01-16T01:07:16;-2.10;99.90
27200;DHT22;14714;48.106;11.546;2024-01-16T01:09:43;-2.20;99.90
27200;DHT22;14714;48.106;11.546;2024-01-16T01:12:09;-2.30;99.90
27200;DHT22;14714;48.106;11.546;2024-01-16T01:14:36;-2.30;99.90
27200;DHT22;14714;48.106;11.546;2024-01-16T01:17:03;-2.40;99.90
27200;DHT22;14714;48.106;11.546;2024-01-16T01:19:30;-2.50;99.90
27200;DHT22;14714;48.106;11.546;2024-01-16T01:21:58;-2.50;99.90
27200;DHT22;14714;48.106;11.546;2024-01-16T01:24:25;-2.60;99.90
27200;DHT22;14714;48.106;11.546;2024-01-16T01:26:51;-2.70;99.90
27200;DHT22;14714;48.106;11.546;2024-01-16T01:29:18;-2.80;99.90
27200;DHT22;14714;48.106;11.546;2024-01-16T01:31:46;-2.80;99.90
27200;DHT22;14714;48.106;11.546;2024-01-16T01:34:15;-2.80;99.90
27200;DHT22;14714;48.106;11.546;2024-01-16T01:36:42;-2.90;99.90
27200;DHT22;14714;48.106;11.546;2024-01-16T01:39:10;-2.90;99.90
27200;DHT22;14714;48.106;11.546;2024-01-16T01:41:39;-2.90;99.90
27200;DHT22;14714;48.106;11.546;2024-01-16T01:44:06;-3.00;99.90
27200;DHT22;14714;48.106;11.546;2024-01-16T01:46:34;-2.90;99.90
27200;DHT22;14714;48.106;11.546;2024-01-16T01:49:03;-2.90;99.90
27200;DHT22;14714;48.106;11.546;2024-01-16T01:51:30;-2.90;99.90
27200;DHT22;14714;48.106;11.546;2024-01-16T01:53:58;-2.80;99.90
27200;DHT22;14714;48.106;11.546;2024-01-16T01:56:26;-2.70;99.90
27200;DHT22;14714;48.106;11.546;2024-01-16T01:58:56;-2.60;99.90
27200;DHT22;14714;48.106;11.546;2024-01-16T02:01:26;-2.50;99.90
27200;DHT22;14714;48.106;11.546;2024-01-16T02:03:55;-2.50;99.90
27200;DHT22;14714;48.106;11.546;2024-01-16T02:06:23;-2.40;99.90
27200;DHT22;14714;48.106;11.546;2024-01-16T02:08:51;-2.30;99.90
27200;DHT22;14714;48.106;11.546;2024-01-16T02:11:18;-2.20;99.90
27200;DHT22;14714;48.106;11.546;2024-01-16T02:13:45;-2.20;99.90
27200;DHT22;14714;48.106;11.546;2024-01-16T02:16:19;-2.10;99.90
27200;DHT22;14714;48.106;11.546;2024-01-16T02:18:47;-2.10;99.90
27200;DHT22;14714;48.106;11.546;2024-01-16T02:21:25;-2.00;99.90
27200;DHT22;14714;48.106;11.546;2024-01-16T02:23:54;-2.00;99.90
27200;DHT22;14714;48.106;11.546;2024-01-16T02:26:21;-2.00;99.90
27200;DHT22;14714;48.106;11.546;2024-01-16T02:28:49;-2.00;99.90
27200;DHT22;14714;48.106;11.546;2024-01-16T02:31:16;-2.00;99.90
27200;DHT22;14714;48.106;11.546;2024-01-16T02:33:43;-2.10;99.90
27200;DHT22;14714;48.106;11.546;2024-01-16T02:36:11;-2.20;99.90
27200;DHT22;14714;48.106;11.546;2024-01-16T02:38:37;-2.30;99.90
27200;DHT22;14714;48.106;11.546;2024-01-16T02:41:05;-2.40;99.90
27200;DHT22;14714;48.106;11.546;2024-01-16T02:43:32;-2.50;99.90
27200;DHT22;14714;48.106;11.546;2024-01-16T02:45:59;-2.60;99.90
27200;DHT22;14714;48.106;11.546;2024-01-16T02:48:26;-2.60;99.90
27200;DHT22;14714;48.106;11.546;2024-01-16T02:50:53;-2.70;99.90
27200;DHT22;14714;48.106;11.546;2024-01-16T02:53:20;-2.70;99.90
27200;DHT22;14714;48.106;11.546;2024-01-16T02:55:46;-2.70;99.90
27200;DHT22;14714;48.106;11.546;2024-01-16T02:58:13;-2.70;99.90
27200;DHT22;14714;48.106;11.546;2024-01-16T03:00:40;-2.70;99.90
27200;DHT22;14714;48.106;11.546;2024-01-16T03:03:07;-2.70;99.90
27200;DHT22;14714;48.106;11.546;2024-01-16T03:05:35;-2.80;99.90
27200;DHT22;14714;48.106;11.546;2024-01-16T03:08:02;-2.80;99.90
27200;DHT22;14714;48.106;11.546;2024-01-16T03:10:29;-2.80;99.90
27200;DHT22;14714;48.106;11.546;2024-01-16T03:12:56;-2.90;99.90
27200;DHT22;14714;48.106;11.546;2024-01-16T03:15:23;-3.00;99.90
27200;DHT22;14714;48.106;11.546;2024-01-16T03:17:50;-3.00;99.90
27200;DHT22;14714;48.106;11.546;2024-01-16T03:20:17;-3.00;99.90
27200;DHT22;14714;48.106;11.546;2024-01-16T03:22:45;-3.10;99.90
27200;DHT22;14714;48.106;11.546;2024-01-16T03:25:12;-3.10;99.90
27200;DHT22;14714;48.106;11.546;2024-01-16T03:27:39;-3.20;99.90
27200;DHT22;14714;48.106;11.546;2024-01-16T03:30:06;-3.10;99.90
27200;DHT22;14714;48.106;11.546;2024-01-16T03:32:36;-3.20;99.90
27200;DHT22;14714;48.106;11.546;2024-01-16T03:35:03;-3.20;99.90
27200;DHT22;14714;48.106;11.546;2024-01-16T03:37:31;-3.20;99.90
27200;DHT22;14714;48.106;11.546;2024-01-16T03:39:58;-3.20;99.90
27200;DHT22;14714;48.106;11.546;2024-01-16T03:42:24;-3.10;99.90
27200;DHT22;14714;48.106;11.546;2024-01-16T03:44:51;-3.10;99.90
27200;DHT22;14714;48.106;11.546;2024-01-16T03:47:19;-3.10;99.90
27200;DHT22;14714;48.106;11.546;2024-01-16T03:49:46;-3.00;99.90
27200;DHT22;14714;48.106;11.546;2024-01-16T03:52:13;-3.00;99.90
27200;DHT22;14714;48.106;11.546;2024-01-16T03:54:40;-3.00;99.90
27200;DHT22;14714;48.106;11.546;2024-01-16T03:57:07;-2.90;99.90
27200;DHT22;14714;48.106;11.546;2024-01-16T03:59:37;-2.90;99.90
27200;DHT22;14714;48.106;11.546;2024-01-16T04:02:04;-2.80;99.90
27200;DHT22;14714;48.106;11.546;2024-01-16T04:04:31;-2.80;99.90
27200;DHT22;14714;48.106;11.546;2024-01-16T04:06:58;-2.70;99.90
27200;DHT22;14714;48.106;11.546;2024-01-16T04:09:25;-2.70;99.90
27200;DHT22;14714;48.106;11.546;2024-01-16T04:11:52;-2.60;99.90
27200;DHT22;14714;48.106;11.546;2024-01-16T04:14:19;-2.60;99.90
27200;DHT22;14714;48.106;11.546;2024-01-16T04:16:46;-2.50;99.90
27200;DHT22;14714;48.106;11.546;2024-01-16T04:19:14;-2.50;99.90
27200;DHT22;14714;48.106;11.546;2024-01-16T04:21:41;-2.50;99.90
27200;DHT22;14714;48.106;11.546;2024-01-16T04:24:08;-2.50;99.90
27200;DHT22;14714;48.106;11.546;2024-01-16T04:26:36;-2.50;99.90
27200;DHT22;14714;48.106;11.546;2024-01-16T04:29:04;-2.50;99.90
27200;DHT22;14714;48.106;11.546;2024-01-16T04:31:38;-2.60;99.90
27200;DHT22;14714;48.106;11.546;2024-01-16T04:34:05;-2.60;99.90
27200;DHT22;14714;48.106;11.546;2024-01-16T04:36:32;-2.60;99.90
27200;DHT22;14714;48.106;11.546;2024-01-16T04:38:59;-2.70;99.90
27200;DHT22;14714;48.106;11.546;2024-01-16T04:41:27;-2.70;99.90
27200;DHT22;14714;48.106;11.546;2024-01-16T04:43:54;-2.70;99.90
27200;DHT22;14714;48.106;11.546;2024-01-16T04:46:21;-2.80;99.90
27200;DHT22;14714;48.106;11.546;2024-01-16T04:48:47;-2.80;99.90
27200;DHT22;14714;48.106;11.546;2024-01-16T04:51:14;-2.90;99.90
27200;DHT22;14714;48.106;11.546;2024-01-16T04:53:41;-3.00;99.90
27200;DHT22;14714;48.106;11.546;2024-01-16T04:56:08;-3.00;99.90
27200;DHT22;14714;48.106;11.546;2024-01-16T04:58:35;-3.00;99.90
27200;DHT22;14714;48.106;11.546;2024-01-16T05:01:02;-3.10;99.90
27200;DHT22;14714;48.106;11.546;2024-01-16T05:03:29;-3.10;99.90
27200;DHT22;14714;48.106;11.546;2024-01-16T05:05:56;-3.20;99.90
27200;DHT22;14714;48.106;11.546;2024-01-16T05:08:23;-3.20;99.90
27200;DHT22;14714;48.106;11.546;2024-01-16T05:10:51;-3.30;99.90
27200;DHT22;14714;48.106;11.546;2024-01-16T05:13:18;-3.30;99.90
27200;DHT22;14714;48.106;11.546;2024-01-16T05:15:44;-3.30;99.90
27200;DHT22;14714;48.106;11.546;2024-01-16T05:18:12;-3.40;99.90
27200;DHT22;14714;48.106;11.546;2024-01-16T05:20:39;-3.40;99.90
27200;DHT22;14714;48.106;11.546;2024-01-16T05:23:06;-3.50;99.90
27200;DHT22;14714;48.106;11.546;2024-01-16T05:25:33;-3.50;99.90
27200;DHT22;14714;48.106;11.546;2024-01-16T05:28:00;-3.60;99.90
27200;DHT22;14714;48.106;11.546;2024-01-16T05:30:27;-3.60;99.90
27200;DHT22;14714;48.106;11.546;2024-01-16T05:32:54;-3.60;99.90
27200;DHT22;14714;48.106;11.546;2024-01-16T05:35:22;-3.60;99.90
27200;DHT22;14714;48.106;11.546;2024-01-16T05:37:51;-3.70;99.90
27200;DHT22;14714;48.106;11.546;2024-01-16T05:40:18;-3.70;99.90
27200;DHT22;14714;48.106;11.546;2024-01-16T05:42:45;-3.70;99.90
27200;DHT22;14714;48.106;11.546;2024-01-16T05:45:12;-3.70;99.90
27200;DHT22;14714;48.106;11.546;2024-01-16T05:47:40;-3.70;99.90
27200;DHT22;14714;48.106;11.546;2024-01-16T05:50:07;-3.80;99.90
27200;DHT22;14714;48.106;11.546;2024-01-16T05:52:36;-3.80;99.90
27200;DHT22;14714;48.106;11.546;2024-01-16T05:55:04;-3.80;99.90
27200;DHT22;14714;48.106;11.546;2024-01-16T05:57:31;-3.90;99.90
27200;DHT22;14714;48.106;11.546;2024-01-16T06:00:00;-3.90;99.90
27200;DHT22;14714;48.106;11.546;2024-01-16T06:02:30;-3.90;99.90
27200;DHT22;14714;48.106;11.546;2024-01-16T06:04:57;-3.90;99.90
27200;DHT22;14714;48.106;11.546;2024-01-16T06:07:24;-3.90;99.90
27200;DHT22;14714;48.106;11.546;2024-01-16T06:09:51;-3.90;99.90
27200;DHT22;14714;48.106;11.546;2024-01-16T06:12:18;-3.90;99.90
27200;DHT22;14714;48.106;11.546;2024-01-16T06:14:45;-3.90;99.90
27200;DHT22;14714;48.106;11.546;2024-01-16T06:17:12;-3.80;99.90
27200;DHT22;14714;48.106;11.546;2024-01-16T06:19:39;-3.80;99.90
27200;DHT22;14714;48.106;11.546;2024-01-16T06:22:06;-3.80;99.90
27200;DHT22;14714;48.106;11.546;2024-01-16T06:24:33;-3.70;99.90
27200;DHT22;14714;48.106;11.546;2024-01-16T06:27:07;-3.70;99.90
27200;DHT22;14714;48.106;11.546;2024-01-16T06:29:34;-3.70;99.90
27200;DHT22;14714;48.106;11.546;2024-01-16T06:32:01;-3.60;99.90
27200;DHT22;14714;48.106;11.546;2024-01-16T06:34:29;-3.60;99.90
27200;DHT22;14714;48.106;11.546;2024-01-16T06:36:56;-3.50;99.90
27200;DHT22;14714;48.106;11.546;2024-01-16T06:39:23;-3.50;99.90
27200;DHT22;14714;48.106;11.546;2024-01-16T06:41:50;-3.40;99.90
27200;DHT22;14714;48.106;11.546;2024-01-16T06:44:18;-3.40;99.90
27200;DHT22;14714;48.106;11.546;2024-01-16T06:46:45;-3.40;99.90
27200;DHT22;14714;48.106;11.546;2024-01-16T06:49:11;-3.40;99.90
27200;DHT22;14714;48.106;11.546;2024-01-16T06:51:38;-3.40;99.90
27200;DHT22;14714;48.106;11.546;2024-01-16T06:54:05;-3.40;99.90
27200;DHT22;14714;48.106;11.546;2024-01-16T06:56:32;-3.40;99.90
27200;DHT22;14714;48.106;11.546;2024-01-16T06:58:59;-3.30;99.90
27200;DHT22;14714;48.106;11.546;2024-01-16T07:01:26;-3.30;99.90
27200;DHT22;14714;48.106;11.546;2024-01-16T07:03:53;-3.30;99.90
27200;DHT22;14714;48.106;11.546;2024-01-16T07:06:20;-3.20;99.90
27200;DHT22;14714;48.106;11.546;2024-01-16T07:08:47;-3.30;99.90
27200;DHT22;14714;48.106;11.546;2024-01-16T07:11:14;-3.20;99.90
27200;DHT22;14714;48.106;11.546;2024-01-16T07:13:41;-3.20;99.90
27200;DHT22;14714;48.106;11.546;2024-01-16T07:16:11;-3.10;99.90
27200;DHT22;14714;48.106;11.546;2024-01-16T07:18:39;-3.10;99.90
27200;DHT22;14714;48.106;11.546;2024-01-16T07:21:17;-3.10;99.90
27200;DHT22;14714;48.106;11.546;2024-01-16T07:23:44;-3.10;99.90
27200;DHT22;14714;48.106;11.546;2024-01-16T07:26:11;-3.00;99.90
27200;DHT22;14714;48.106;11.546;2024-01-16T07:28:38;-2.90;99.90
27200;DHT22;14714;48.106;11.546;2024-01-16T07:31:05;-2.90;99.90
27200;DHT22;14714;48.106;11.546;2024-01-16T07:33:32;-2.80;99.90
27200;DHT22;14714;48.106;11.546;2024-01-16T07:35:59;-2.80;99.90
27200;DHT22;14714;48.106;11.546;2024-01-16T07:38:26;-2.70;99.90
27200;DHT22;14714;48.106;11.546;2024-01-16T07:40:53;-2.70;99.90
27200;DHT22;14714;48.106;11.546;2024-01-16T07:43:20;-2.60;99.90
27200;DHT22;14714;48.106;11.546;2024-01-16T07:45:47;-2.50;99.90
27200;DHT22;14714;48.106;11.546;2024-01-16T07:48:14;-2.30;99.90
27200;DHT22;14714;48.106;11.546;2024-01-16T07:50:41;-2.10;99.90
27200;DHT22;14714;48.106;11.546;2024-01-16T07:53:08;-2.00;99.90
27200;DHT22;14714;48.106;11.546;2024-01-16T07:55:35;-1.80;99.90
27200;DHT22;14714;48.106;11.546;2024-01-16T07:58:02;-1.60;99.90
27200;DHT22;14714;48.106;11.546;2024-01-16T08:00:30;-1.40;99.90
27200;DHT22;14714;48.106;11.546;2024-01-16T08:02:57;-1.10;99.90
27200;DHT22;14714;48.106;11.546;2024-01-16T08:05:24;-0.80;99.90
27200;DHT22;14714;48.106;11.546;2024-01-16T08:07:54;-0.50;99.90
27200;DHT22;14714;48.106;11.546;2024-01-16T08:10:21;-0.20;99.90
27200;DHT22;14714;48.106;11.546;2024-01-16T08:12:48;-0.10;99.90
27200;DHT22;14714;48.106;11.546;2024-01-16T08:15:15;0.10;99.90
27200;DHT22;14714;48.106;11.546;2024-01-16T08:17:42;0.30;99.90
27200;DHT22;14714;48.106;11.546;2024-01-16T08:20:09;0.50;99.90
27200;DHT22;14714;48.106;11.546;2024-01-16T08:22:37;0.70;99.90
27200;DHT22;14714;48.106;11.546;2024-01-16T08:25:05;0.80;99.90
27200;DHT22;14714;48.106;11.546;2024-01-16T08:27:32;0.90;99.90
27200;DHT22;14714;48.106;11.546;2024-01-16T08:29:59;1.20;99.90
27200;DHT22;14714;48.106;11.546;2024-01-16T08:32:26;1.50;99.90
27200;DHT22;14714;48.106;11.546;2024-01-16T08:34:53;1.80;99.90
27200;DHT22;14714;48.106;11.546;2024-01-16T08:37:20;2.00;99.90
27200;DHT22;14714;48.106;11.546;2024-01-16T08:39:47;2.10;99.90
27200;DHT22;14714;48.106;11.546;2024-01-16T08:42:14;2.30;99.90
27200;DHT22;14714;48.106;11.546;2024-01-16T08:44:41;2.40;99.90
27200;DHT22;14714;48.106;11.546;2024-01-16T08:47:08;2.50;99.90
27200;DHT22;14714;48.106;11.546;2024-01-16T08:49:36;2.60;99.90
27200;DHT22;14714;48.106;11.546;2024-01-16T08:52:05;2.80;99.90
27200;DHT22;14714;48.106;11.546;2024-01-16T08:54:33;2.80;99.90
27200;DHT22;14714;48.106;11.546;2024-01-16T08:56:59;2.80;99.90
27200;DHT22;14714;48.106;11.546;2024-01-16T08:59:27;2.90;99.90
27200;DHT22;14714;48.106;11.546;2024-01-16T09:01:55;3.20;99.90
27200;DHT22;14714;48.106;11.546;2024-01-16T09:04:22;3.70;99.90
27200;DHT22;14714;48.106;11.546;2024-01-16T09:06:49;4.30;99.90
27200;DHT22;14714;48.106;11.546;2024-01-16T09:09:17;4.90;98.50
27200;DHT22;14714;48.106;11.546;2024-01-16T09:11:44;5.30;97.20
27200;DHT22;14714;48.106;11.546;2024-01-16T09:14:11;5.70;95.40
27200;DHT22;14714;48.106;11.546;2024-01-16T09:16:38;6.10;93.20
27200;DHT22;14714;48.106;11.546;2024-01-16T09:19:05;6.40;92.30
27200;DHT22;14714;48.106;11.546;2024-01-16T09:21:33;7.00;90.60
27200;DHT22;14714;48.106;11.546;2024-01-16T09:24:00;7.70;86.20
27200;DHT22;14714;48.106;11.546;2024-01-16T09:26:27;8.40;84.00
27200;DHT22;14714;48.106;11.546;2024-01-16T09:28:54;9.00;78.80
27200;DHT22;14714;48.106;11.546;2024-01-16T09:31:21;9.20;72.90
27200;DHT22;14714;48.106;11.546;2024-01-16T09:33:48;9.00;69.40
27200;DHT22;14714;48.106;11.546;2024-01-16T09:36:15;8.40;69.90
27200;DHT22;14714;48.106;11.546;2024-01-16T09:38:42;8.00;72.40
27200;DHT22;14714;48.106;11.546;2024-01-16T09:41:10;7.80;73.40
27200;DHT22;14714;48.106;11.546;2024-01-16T09:43:37;7.90;73.10
27200;DHT22;14714;48.106;11.546;2024-01-16T09:46:04;7.90;70.60
27200;DHT22;14714;48.106;11.546;2024-01-16T09:48:32;7.80;71.00
27200;DHT22;14714;48.106;11.546;2024-01-16T09:50:59;7.40;71.70
27200;DHT22;14714;48.106;11.546;2024-01-16T09:53:26;7.20;71.90
27200;DHT22;14714;48.106;11.546;2024-01-16T09:55:54;6.90;72.60
27200;DHT22;14714;48.106;11.546;2024-01-16T09:58:26;6.50;73.60
27200;DHT22;14714;48.106;11.546;2024-01-16T10:00:55;6.10;75.50
27200;DHT22;14714;48.106;11.546;2024-01-16T10:03:23;5.80;76.00
27200;DHT22;14714;48.106;11.546;2024-01-16T10:05:51;5.40;76.50
27200;DHT22;14714;48.106;11.546;2024-01-16T10:08:18;5.20;78.60
27200;DHT22;14714;48.106;11.546;2024-01-16T10:10:48;5.20;78.90
27200;DHT22;14714;48.106;11.546;2024-01-16T10:13:17;5.10;79.40
27200;DHT22;14714;48.106;11.546;2024-01-16T10:15:44;5.00;79.70
27200;DHT22;14714;48.106;11.546;2024-01-16T10:18:22;5.00;79.80
27200;DHT22;14714;48.106;11.546;2024-01-16T10:20:53;4.90;80.00
27200;DHT22;14714;48.106;11.546;2024-01-16T10:23:28;4.80;79.80
27200;DHT22;14714;48.106;11.546;2024-01-16T10:26:12;4.60;81.00
27200;DHT22;14714;48.106;11.546;2024-01-16T10:28:40;4.40;79.80
27200;DHT22;14714;48.106;11.546;2024-01-16T10:31:09;4.30;80.80
27200;DHT22;14714;48.106;11.546;2024-01-16T10:33:38;4.20;81.70
27200;DHT22;14714;48.106;11.546;2024-01-16T10:36:17;4.20;81.80
27200;DHT22;14714;48.106;11.546;2024-01-16T10:38:47;4.20;82.00
27200;DHT22;14714;48.106;11.546;2024-01-16T10:41:15;4.20;82.60
27200;DHT22;14714;48.106;11.546;2024-01-16T10:43:44;4.30;83.10
27200;DHT22;14714;48.106;11.546;2024-01-16T10:46:17;4.40;83.30
27200;DHT22;14714;48.106;11.546;2024-01-16T10:48:59;4.60;83.90
27200;DHT22;14714;48.106;11.546;2024-01-16T10:51:28;4.70;81.10
27200;DHT22;14714;48.106;11.546;2024-01-16T10:53:59;4.80;81.80
27200;DHT22;14714;48.106;11.546;2024-01-16T10:56:29;4.90;80.10
27200;DHT22;14714;48.106;11.546;2024-01-16T11:01:30;5.00;80.80
27200;DHT22;14714;48.106;11.546;2024-01-16T11:03:58;5.00;81.10
27200;DHT22;14714;48.106;11.546;2024-01-16T11:06:26;5.10;80.70
27200;DHT22;14714;48.106;11.546;2024-01-16T11:08:54;5.20;78.10
27200;DHT22;14714;48.106;11.546;2024-01-16T11:11:23;5.30;78.30
27200;DHT22;14714;48.106;11.546;2024-01-16T11:13:51;5.50;77.00
27200;DHT22;14714;48.106;11.546;2024-01-16T11:16:18;5.60;77.40
27200;DHT22;14714;48.106;11.546;2024-01-16T11:18:46;5.60;75.20
27200;DHT22;14714;48.106;11.546;2024-01-16T11:21:14;5.40;75.20
27200;DHT22;14714;48.106;11.546;2024-01-16T11:23:45;5.30;75.40
27200;DHT22;14714;48.106;11.546;2024-01-16T11:26:25;5.20;75.70
27200;DHT22;14714;48.106;11.546;2024-01-16T11:28:55;5.10;76.10
27200;DHT22;14714;48.106;11.546;2024-01-16T11:31:33;5.10;76.50
27200;DHT22;14714;48.106;11.546;2024-01-16T11:34:02;5.00;76.60
27200;DHT22;14714;48.106;11.546;2024-01-16T11:36:52;4.90;75.40
27200;DHT22;14714;48.106;11.546;2024-01-16T11:39:24;4.80;77.30
27200;DHT22;14714;48.106;11.546;2024-01-16T11:41:54;4.80;78.80
27200;DHT22;14714;48.106;11.546;2024-01-16T11:44:45;4.80;78.70
27200;DHT22;14714;48.106;11.546;2024-01-16T11:47:22;4.90;76.90
27200;DHT22;14714;48.106;11.546;2024-01-16T11:49:51;4.90;74.20
27200;DHT22;14714;48.106;11.546;2024-01-16T11:52:44;4.90;73.70
27200;DHT22;14714;48.106;11.546;2024-01-16T11:55:28;4.90;74.10
27200;DHT22;14714;48.106;11.546;2024-01-16T12:00:52;5.10;74.10
27200;DHT22;14714;48.106;11.546;2024-01-16T12:03:22;5.30;73.00
27200;DHT22;14714;48.106;11.546;2024-01-16T12:06:01;5.30;73.70
27200;DHT22;14714;48.106;11.546;2024-01-16T12:08:34;5.30;73.40
27200;DHT22;14714;48.106;11.546;2024-01-16T12:11:01;5.20;73.90
27200;DHT22;14714;48.106;11.546;2024-01-16T12:13:27;5.10;73.10
27200;DHT22;14714;48.106;11.546;2024-01-16T12:16:01;5.00;72.80
27200;DHT22;14714;48.106;11.546;2024-01-16T12:18:28;4.90;71.30
27200;DHT22;14714;48.106;11.546;2024-01-16T12:21:09;4.80;71.50
27200;DHT22;14714;48.106;11.546;2024-01-16T12:23:37;4.70;72.40
27200;DHT22;14714;48.106;11.546;2024-01-16T12:26:20;4.70;71.80
27200;DHT22;14714;48.106;11.546;2024-01-16T12:28:51;4.70;72.00
27200;DHT22;14714;48.106;11.546;2024-01-16T12:31:21;4.70;74.50
27200;DHT22;14714;48.106;11.546;2024-01-16T12:33:48;4.80;76.30
27200;DHT22;14714;48.106;11.546;2024-01-16T12:36:27;4.80;74.80
27200;DHT22;14714;48.106;11.546;2024-01-16T12:38:54;4.90;73.80
27200;DHT22;14714;48.106;11.546;2024-01-16T12:41:23;5.00;72.70
27200;DHT22;14714;48.106;11.546;2024-01-16T12:44:05;4.90;72.00
27200;DHT22;14714;48.106;11.546;2024-01-16T12:46:41;4.90;71.80
27200;DHT22;14714;48.106;11.546;2024-01-16T12:49:08;4.80;72.00
27200;DHT22;14714;48.106;11.546;2024-01-16T12:51:38;4.90;71.30
27200;DHT22;14714;48.106;11.546;2024-01-16T12:54:16;5.00;70.70
27200;DHT22;14714;48.106;11.546;2024-01-16T12:56:45;5.10;71.40
27200;DHT22;14714;48.106;11.546;2024-01-16T12:59:12;5.20;71.80
27200;DHT22;14714;48.106;11.546;2024-01-16T13:01:41;5.30;71.60
27200;DHT22;14714;48.106;11.546;2024-01-16T13:04:15;5.30;69.80
27200;DHT22;14714;48.106;11.546;2024-01-16T13:06:45;5.30;71.10
27200;DHT22;14714;48.106;11.546;2024-01-16T13:09:13;5.40;70.50
27200;DHT22;14714;48.106;11.546;2024-01-16T13:11:48;5.40;69.80
27200;DHT22;14714;48.106;11.546;2024-01-16T13:14:16;5.40;70.00
27200;DHT22;14714;48.106;11.546;2024-01-16T13:16:43;5.40;69.80
27200;DHT22;14714;48.106;11.546;2024-01-16T13:19:16;5.40;70.00
27200;DHT22;14714;48.106;11.546;2024-01-16T13:21:43;5.40;70.90
27200;DHT22;14714;48.106;11.546;2024-01-16T13:24:10;5.40;69.20
27200;DHT22;14714;48.106;11.546;2024-01-16T13:26:37;5.40;70.50
27200;DHT22;14714;48.106;11.546;2024-01-16T13:29:04;5.30;70.10
27200;DHT22;14714;48.106;11.546;2024-01-16T13:31:32;5.20;67.90
27200;DHT22;14714;48.106;11.546;2024-01-16T13:33:59;5.00;68.30
27200;DHT22;14714;48.106;11.546;2024-01-16T13:36:26;4.90;68.80
27200;DHT22;14714;48.106;11.546;2024-01-16T13:39:14;4.90;70.20
27200;DHT22;14714;48.106;11.546;2024-01-16T13:41:42;4.80;71.60
27200;DHT22;14714;48.106;11.546;2024-01-16T13:44:09;4.80;70.70
27200;DHT22;14714;48.106;11.546;2024-01-16T13:46:37;4.70;69.00
27200;DHT22;14714;48.106;11.546;2024-01-16T13:49:07;4.60;69.40
27200;DHT22;14714;48.106;11.546;2024-01-16T13:51:34;4.50;70.30
27200;DHT22;14714;48.106;11.546;2024-01-16T13:54:01;4.50;70.60
27200;DHT22;14714;48.106;11.546;2024-01-16T13:56:28;4.40;72.90
27200;DHT22;14714;48.106;11.546;2024-01-16T13:59:15;4.40;72.10
27200;DHT22;14714;48.106;11.546;2024-01-16T14:01:42;4.30;71.80
27200;DHT22;14714;48.106;11.546;2024-01-16T14:04:09;4.30;73.20
27200;DHT22;14714;48.106;11.546;2024-01-16T14:06:35;4.20;73.50
27200;DHT22;14714;48.106;11.546;2024-01-16T14:09:22;4.20;73.90
27200;DHT22;14714;48.106;11.546;2024-01-16T14:11:50;4.10;73.30
27200;DHT22;14714;48.106;11.546;2024-01-16T14:14:17;4.00;72.50
27200;DHT22;14714;48.106;11.546;2024-01-16T14:16:44;3.90;71.90
27200;DHT22;14714;48.106;11.546;2024-01-16T14:19:20;3.80;72.40
27200;DHT22;14714;48.106;11.546;2024-01-16T14:21:47;3.70;74.90
27200;DHT22;14714;48.106;11.546;2024-01-16T14:24:14;3.70;75.70
27200;DHT22;14714;48.106;11.546;2024-01-16T14:26:44;3.60;76.90
27200;DHT22;14714;48.106;11.546;2024-01-16T14:29:12;3.50;74.50
27200;DHT22;14714;48.106;11.546;2024-01-16T14:31:39;3.40;74.40
27200;DHT22;14714;48.106;11.546;2024-01-16T14:34:12;3.30;75.20
27200;DHT22;14714;48.106;11.546;2024-01-16T14:36:42;3.20;75.10
27200;DHT22;14714;48.106;11.546;2024-01-16T14:39:09;3.10;76.50
27200;DHT22;14714;48.106;11.546;2024-01-16T14:41:40;3.00;76.10
27200;DHT22;14714;48.106;11.546;2024-01-16T14:44:09;2.90;75.80
27200;DHT22;14714;48.106;11.546;2024-01-16T14:46:36;2.80;76.50
27200;DHT22;14714;48.106;11.546;2024-01-16T14:49:04;2.80;77.20
27200;DHT22;14714;48.106;11.546;2024-01-16T14:51:31;2.70;78.30
27200;DHT22;14714;48.106;11.546;2024-01-16T14:53:58;2.70;80.60
27200;DHT22;14714;48.106;11.546;2024-01-16T14:56:28;2.70;81.50
27200;DHT22;14714;48.106;11.546;2024-01-16T14:58:55;2.60;79.90
27200;DHT22;14714;48.106;11.546;2024-01-16T15:01:22;2.50;78.50
27200;DHT22;14714;48.106;11.546;2024-01-16T15:03:49;2.40;79.60
27200;DHT22;14714;48.106;11.546;2024-01-16T15:06:16;2.40;83.40
27200;DHT22;14714;48.106;11.546;2024-01-16T15:08:44;2.30;81.80
27200;DHT22;14714;48.106;11.546;2024-01-16T15:11:10;2.30;81.80
27200;DHT22;14714;48.106;11.546;2024-01-16T15:13:37;2.20;82.00
27200;DHT22;14714;48.106;11.546;2024-01-16T15:16:04;2.10;82.10
27200;DHT22;14714;48.106;11.546;2024-01-16T15:18:31;2.00;82.40
27200;DHT22;14714;48.106;11.546;2024-01-16T15:20:59;1.90;83.30
27200;DHT22;14714;48.106;11.546;2024-01-16T15:23:26;1.80;83.50
27200;DHT22;14714;48.106;11.546;2024-01-16T15:25:54;1.70;84.40
27200;DHT22;14714;48.106;11.546;2024-01-16T15:28:21;1.60;85.00
27200;DHT22;14714;48.106;11.546;2024-01-16T15:30:48;1.60;85.40
27200;DHT22;14714;48.106;11.546;2024-01-16T15:33:15;1.50;85.20
27200;DHT22;14714;48.106;11.546;2024-01-16T15:35:42;1.40;85.10